Weippe, ID

6:03 PM PDT on August 27, 2014 (GMT -0700)
Lewiston-Nez Perce County | Change Station
CLOSE
Current Station
Airport
Location: Lewiston,
Elevation: 1437 ft
Nearby Weather Stations

Elev 1437 ft 46.37 °N, 117.02 °W | Updated 7 minutes ago

Clear
Clear
92 °F
Feels Like 92 °F
N
5
Wind Variable Wind from SW

Today
High -- | Low -- °F
--% Chance of Precip.
Yesterday
High -- | Low -- °F
Precip. -- in
5:57 AM 7:31 PM
Waxing Crescent, 5% visible
Pressure 29.89 in
Visibility 10.0 miles
Clouds Clear
Dew Point 44 °F
Humidity 19%
Rainfall 0.00 in
Snow Depth Not available.
UV 1 out of 12
Pollen 7.90 out of 12
Air Quality Not available.
Flu Activity Not available.
METAR KLWS 280056Z 23004KT 10SM CLR 33/07 A2992 RMK AO2 SLP122 T03330067

More Conditions Fewer Conditions

Pressure 29.89 in
Visibility 10.0 miles
Clouds Clear
Dew Point 44 °F
Humidity 19%
Rainfall 0.00 in
Snow Depth Not available.
UV 1 out of 12
Pollen 7.90 out of 12
Air Quality Not available.
Flu Activity Not available.
METAR KLWS 280056Z 23004KT 10SM CLR 33/07 A2992 RMK AO2 SLP122 T03330067

More Conditions Fewer Conditions

10-Day Weather Forecast

Almanac

Astronomy

Aug. 27, 2014 Rise Set
Actual Time 5:57 AM PDT 7:31 PM PDT
Civil Twilight 5:26 AM PDT 8:03 PM PDT
Nautical Twilight 4:47 AM PDT 8:41 PM PDT
Astronomical Twilight 4:06 AM PDT 9:22 PM PDT
Moon 8:07 AM PDT (8/27) 8:15 PM PDT (8/27)
Length of Visible Light 14h 37m
Length of Day
13h 34m
Tomorrow will be 3m 9s shorter.
Waxing Crescent, 5% of the Moon is Illuminated
Today
Waxing Crescent
Sep 2
First Quarter
Sep 8
Full
Sep 15
Last Quarter
Sep 24
New

Today's Extremes

State Highs State Lows

Community

WunderPhotos

Upload Photos

1,747,843 photos uploaded!

Nearby

Snow Depth

Station Depth Elevation
Savage Pass 1 in 6170 ft
Lookout 0 in 5140 ft
Humboldt Gulch 2 in 4250 ft
Sunset 0 in 5540 ft
Secesh Summit 0 in 6520 ft

Earthquake Activity

City Distance Mag. Time & Date
No recent earthquake activity has been reported nearby.
Minimum magnitude displayed is 2.5.

Coastal Water Temperatures

Place Temperature
No Stations Reporting

Nearby Weather Stations